Terminal Aerodrome Forecast
Issued by NWS

Home | Current Version | Previous Version | Text Only | Print | Product List | Glossary On
Versions: 1 2 3 4 5 6 7 8 9 10 11 12
104
FTUS45 KVEF 141720
TAFEED
TAF
KEED 141720Z 1418/1518 01030G40KT P6SM SKC
     FM150300 35014KT P6SM SKC
     FM151400 33008KT P6SM FEW250=

USA.gov is the U.S. government's official web portal to all federal, state and local government web resources and services.